Time;durP1;ratioP1;P1;durP2;ratioP2;P2;SDS_P1;SDS_P2;PMS_P1;PMS_P2;Temp;Humidity;BMP_temperature;BMP_pressure;BME280_temperature;BME280_humidity;BME280_pressure;Samples;Min_cycle;Max_cycle;Signal;HPM_P1;HPM_P2
2023/11/25 00:00:55;;;;;;;10.80;5.00;;;;;;;2.08;85.10;97622.27;103333;1254;107178;-87
2023/11/25 00:03:37;;;;;;;9.20;4.80;;;;;;;2.09;84.80;97625.15;102439;1257;1003075;-83
2023/11/25 00:06:04;;;;;;;12.00;5.00;;;;;;;2.06;84.72;97625.77;102580;1255;1003777;-86
2023/11/25 00:08:32;;;;;;;9.90;4.30;;;;;;;2.07;84.77;97622.13;102889;1254;1002355;-85
2023/11/25 00:10:59;;;;;;;9.10;4.60;;;;;;;2.07;84.93;97624.89;103354;1254;97791;-87
2023/11/25 00:13:26;;;;;;;8.90;4.50;;;;;;;2.05;84.81;97628.05;103253;1254;107406;-87
2023/11/25 00:15:54;;;;;;;10.40;5.20;;;;;;;2.07;84.86;97628.63;103211;1254;137966;-86
2023/11/25 00:18:22;;;;;;;9.00;4.60;;;;;;;2.13;84.97;97624.98;103562;1254;110574;-87
2023/11/25 00:20:49;;;;;;;12.40;5.00;;;;;;;2.15;85.07;97625.09;103126;1260;137620;-88
2023/11/25 00:23:17;;;;;;;9.90;5.10;;;;;;;2.22;84.86;97630.30;103310;1254;97806;-87
2023/11/25 00:25:44;;;;;;;10.70;5.40;;;;;;;2.26;84.78;97632.16;103178;1259;137601;-88
2023/11/25 00:28:11;;;;;;;10.10;5.90;;;;;;;2.28;84.58;97629.68;103327;1254;98108;-88
2023/11/25 00:30:38;;;;;;;12.30;6.00;;;;;;;2.26;84.71;97636.80;103164;1254;110971;-86
2023/11/25 00:33:05;;;;;;;9.30;4.70;;;;;;;2.24;84.43;97641.19;103134;1254;138945;-88
2023/11/25 00:35:32;;;;;;;10.10;5.20;;;;;;;2.21;84.30;97639.05;103284;1254;99486;-85
2023/11/25 00:37:59;;;;;;;9.70;4.80;;;;;;;2.24;84.70;97644.63;103166;1253;138466;-87
2023/11/25 00:40:27;;;;;;;10.80;5.20;;;;;;;2.26;84.55;97645.73;103265;1257;97797;-87
2023/11/25 00:42:54;;;;;;;9.60;5.00;;;;;;;2.29;84.55;97642.84;103253;1254;112481;-88
2023/11/25 00:45:25;;;;;;;11.30;5.00;;;;;;;2.27;84.44;97641.35;102434;1256;1003014;-88
2023/11/25 00:47:52;;;;;;;9.40;5.20;;;;;;;2.28;84.38;97644.93;101855;1254;1003216;-89
2023/11/25 00:50:20;;;;;;;9.30;5.00;;;;;;;2.30;84.49;97639.36;103466;1254;137769;-87
2023/11/25 00:52:46;;;;;;;8.30;5.20;;;;;;;2.30;84.31;97647.61;103338;1253;97813;-88
2023/11/25 00:55:13;;;;;;;6.90;4.70;;;;;;;2.27;84.25;97645.33;103306;1254;111340;-89
2023/11/25 00:57:40;;;;;;;12.00;5.10;;;;;;;2.22;84.33;97641.74;103219;1257;137516;-87
2023/11/25 01:00:15;;;;;;;8.90;4.70;;;;;;;2.17;84.04;97644.39;103208;1254;97826;-85
2023/11/25 01:02:43;;;;;;;10.30;4.50;;;;;;;2.11;84.24;97639.45;104215;1254;138060;-87
2023/11/25 01:05:11;;;;;;;7.70;4.20;;;;;;;2.08;84.63;97645.39;102545;1254;1003626;-85
2023/11/25 01:07:38;;;;;;;9.50;4.60;;;;;;;2.11;84.80;97645.11;103322;1259;138419;-87
2023/11/25 01:10:06;;;;;;;9.40;4.80;;;;;;;2.10;84.96;97645.15;103237;1258;108424;-85
2023/11/25 01:12:35;;;;;;;8.70;4.70;;;;;;;2.07;84.91;97644.58;103260;1254;1002991;-87
2023/11/25 01:15:02;;;;;;;8.60;4.80;;;;;;;2.12;85.28;97650.71;103511;1254;137267;-87
2023/11/25 01:17:29;;;;;;;9.30;4.80;;;;;;;2.12;85.11;97648.99;103797;1259;96294;-90
2023/11/25 01:19:58;;;;;;;9.80;4.90;;;;;;;2.12;85.26;97649.84;103227;1254;139041;-88
2023/11/25 01:22:25;;;;;;;9.50;4.50;;;;;;;2.14;85.30;97650.46;103318;1259;108521;-88
2023/11/25 01:24:52;;;;;;;9.40;4.80;;;;;;;2.18;85.27;97653.59;102595;1255;1003378;-89
2023/11/25 01:27:19;;;;;;;8.70;4.90;;;;;;;2.21;85.39;97648.67;103448;1254;137451;-88
2023/11/25 01:29:46;;;;;;;8.90;5.70;;;;;;;2.23;85.37;97648.58;103321;1254;97804;-87
2023/11/25 01:32:13;;;;;;;7.60;5.30;;;;;;;2.23;85.32;97647.20;103277;1254;138317;-87
2023/11/25 01:34:40;;;;;;;6.90;4.50;;;;;;;2.19;85.22;97648.25;103325;1254;107336;-87
2023/11/25 01:37:08;;;;;;;7.70;4.60;;;;;;;2.16;85.09;97648.53;102584;1254;1003315;-86
2023/11/25 01:39:35;;;;;;;6.70;4.10;;;;;;;2.16;85.35;97650.95;103390;1256;138248;-87
2023/11/25 01:42:03;;;;;;;7.20;4.30;;;;;;;2.11;85.16;97646.28;103250;1254;97829;-85
2023/11/25 01:44:30;;;;;;;6.70;4.50;;;;;;;2.14;85.67;97649.79;103478;1256;137807;-86
2023/11/25 01:46:57;;;;;;;6.90;4.70;;;;;;;2.16;85.48;97651.44;103315;1254;107843;-84
2023/11/25 01:49:25;;;;;;;7.40;4.20;;;;;;;2.17;85.57;97651.43;102520;1254;1003398;-84
2023/11/25 01:51:53;;;;;;;8.40;5.00;;;;;;;2.20;85.64;97651.44;103128;1256;138255;-86
2023/11/25 01:54:21;;;;;;;9.20;5.00;;;;;;;2.23;85.56;97649.95;102581;1259;1003038;-85
2023/11/25 01:56:51;;;;;;;7.60;5.30;;;;;;;2.28;85.75;97657.63;103342;1254;136476;-84
2023/11/25 01:59:20;;;;;;;9.20;5.40;;;;;;;2.36;85.82;97657.33;104104;1257;106492;-86
2023/11/25 02:01:48;;;;;;;9.60;5.60;;;;;;;2.36;85.43;97655.27;104358;1254;137938;-87
2023/11/25 02:04:16;;;;;;;8.60;5.50;;;;;;;2.30;85.18;97661.67;104703;1253;107171;-86
2023/11/25 02:06:43;;;;;;;8.90;5.50;;;;;;;2.21;85.05;97657.60;103752;1254;1003489;-85
2023/11/25 02:09:13;;;;;;;6.10;4.80;;;;;;;2.16;85.38;97657.61;104169;1254;138198;-85
2023/11/25 02:11:56;;;;;;;8.20;4.80;;;;;;;2.14;85.31;97658.71;104454;1257;107003;-85
2023/11/25 02:14:24;;;;;;;7.90;5.10;;;;;;;2.11;85.41;97655.20;103333;1254;138948;-87
2023/11/25 02:16:53;;;;;;;7.50;4.70;;;;;;;2.07;85.16;97667.39;103789;1254;107597;-85
2023/11/25 02:19:24;;;;;;;9.80;5.20;;;;;;;2.07;85.53;97671.17;103074;1254;97750;-85
2023/11/25 02:21:51;;;;;;;6.70;4.70;;;;;;;2.06;85.43;97676.85;102413;1256;1139707;-86
2023/11/25 02:24:18;;;;;;;8.70;4.80;;;;;;;2.02;85.60;97675.14;103282;1254;107057;-86
2023/11/25 02:26:45;;;;;;;6.90;4.60;;;;;;;2.00;85.47;97677.44;103232;1257;136864;-87
2023/11/25 02:29:12;;;;;;;8.00;4.60;;;;;;;1.98;85.73;97680.79;103064;1254;107327;-86
2023/11/25 02:31:42;;;;;;;7.20;4.30;;;;;;;1.95;85.58;97678.66;103140;1254;138361;-83
2023/11/25 02:34:10;;;;;;;7.60;4.90;;;;;;;1.89;85.64;97679.77;102890;1258;1002352;-85
2023/11/25 02:36:38;;;;;;;7.20;4.90;;;;;;;1.89;85.98;97683.19;102414;1254;1003090;-84
2023/11/25 02:39:05;;;;;;;6.30;4.40;;;;;;;1.90;85.95;97683.80;103192;1257;138195;-85
2023/11/25 02:41:32;;;;;;;7.10;4.00;;;;;;;1.92;85.87;97689.55;103271;1254;109673;-85
2023/11/25 02:43:59;;;;;;;5.30;3.90;;;;;;;1.93;85.93;97689.54;103236;1254;137824;-85
2023/11/25 02:46:26;;;;;;;6.10;4.40;;;;;;;1.97;85.68;97697.59;103181;1253;111810;-84
2023/11/25 02:48:53;;;;;;;5.90;4.20;;;;;;;1.99;85.52;97698.92;102327;1254;1002588;-86
2023/11/25 02:51:20;;;;;;;6.60;3.90;;;;;;;1.99;85.37;97703.01;102466;1254;1003647;-86
2023/11/25 02:53:47;;;;;;;6.70;4.20;;;;;;;1.97;85.05;97705.99;102266;1258;1002992;-87
2023/11/25 02:56:14;;;;;;;5.40;4.40;;;;;;;1.90;84.87;97706.27;103100;1254;137659;-90
2023/11/25 02:58:42;;;;;;;6.00;3.60;;;;;;;1.85;84.84;97708.67;103337;1254;111733;-87
2023/11/25 03:01:13;;;;;;;6.20;3.70;;;;;;;1.84;85.05;97709.92;103383;1259;108408;-87
2023/11/25 03:03:47;;;;;;;7.30;4.20;;;;;;;1.82;84.91;97712.73;103032;1260;139014;-85
2023/11/25 03:06:16;;;;;;;5.50;4.10;;;;;;;1.83;85.01;97713.58;103284;1259;108105;-85
2023/11/25 03:08:43;;;;;;;6.80;4.30;;;;;;;1.84;84.95;97708.06;103224;1259;138119;-86
2023/11/25 03:11:15;;;;;;;6.00;4.00;;;;;;;1.84;84.95;97710.79;102580;1254;1002909;-84
2023/11/25 03:13:42;;;;;;;5.60;4.20;;;;;;;1.83;84.92;97713.23;103167;1257;140407;-84
2023/11/25 03:16:11;;;;;;;6.10;3.80;;;;;;;1.81;84.69;97718.10;103314;1256;97876;-85
2023/11/25 03:18:39;;;;;;;6.00;3.60;;;;;;;1.76;84.82;97713.11;103331;1253;108760;-84
2023/11/25 03:21:06;;;;;;;5.90;3.90;;;;;;;1.79;84.89;97713.86;103203;1259;137953;-84
2023/11/25 03:23:33;;;;;;;5.20;4.20;;;;;;;1.79;84.75;97716.77;103213;1254;110449;-85
2023/11/25 03:26:00;;;;;;;4.50;3.80;;;;;;;1.77;84.94;97721.13;103163;1253;137683;-86
2023/11/25 03:28:27;;;;;;;6.80;4.40;;;;;;;1.77;84.92;97717.33;103338;1257;98141;-85
2023/11/25 03:30:55;;;;;;;6.70;4.70;;;;;;;1.73;84.73;97723.84;103272;1254;108735;-85
2023/11/25 03:33:22;;;;;;;5.30;4.10;;;;;;;1.64;84.74;97722.65;103236;1254;137354;-85
2023/11/25 03:35:49;;;;;;;6.20;3.80;;;;;;;1.57;85.14;97722.90;102378;1254;1003195;-85
2023/11/25 03:38:16;;;;;;;6.10;4.20;;;;;;;1.53;85.25;97728.70;102397;1259;1003027;-84
2023/11/25 03:40:43;;;;;;;6.40;4.20;;;;;;;1.51;85.38;97725.17;103294;1258;97781;-86
2023/11/25 03:43:10;;;;;;;4.70;3.70;;;;;;;1.49;85.27;97727.63;103343;1254;107321;-87
2023/11/25 03:45:37;;;;;;;6.70;3.80;;;;;;;1.49;85.55;97730.20;103084;1253;139347;-86
2023/11/25 03:48:05;;;;;;;5.70;4.50;;;;;;;1.50;85.40;97733.43;103097;1254;112450;-84
2023/11/25 03:50:32;;;;;;;4.80;3.60;;;;;;;1.47;85.28;97732.50;103732;1255;138023;-84
2023/11/25 03:52:59;;;;;;;5.00;3.30;;;;;;;1.47;85.32;97735.45;103344;1254;97701;-85
2023/11/25 03:55:27;;;;;;;3.80;3.20;;;;;;;1.49;85.32;97738.96;103330;1253;108264;-85
2023/11/25 03:57:53;;;;;;;4.20;3.20;;;;;;;1.50;85.25;97742.16;103180;1256;137978;-85
2023/11/25 04:00:22;;;;;;;4.60;3.30;;;;;;;1.51;85.37;97745.71;103314;1254;110976;-86
2023/11/25 04:02:51;;;;;;;5.40;3.20;;;;;;;1.53;85.35;97749.10;103086;1256;1002528;-86
2023/11/25 04:05:18;;;;;;;4.10;3.10;;;;;;;1.58;85.36;97752.67;103345;1257;97990;-86
2023/11/25 04:07:45;;;;;;;5.20;3.30;;;;;;;1.64;85.14;97750.77;103204;1258;137603;-87
2023/11/25 04:10:13;;;;;;;3.70;3.10;;;;;;;1.63;84.93;97750.10;102559;1254;1003687;-85
2023/11/25 04:12:41;;;;;;;5.10;3.40;;;;;;;1.65;84.96;97750.38;103404;1254;110887;-86
2023/11/25 04:15:10;;;;;;;3.60;3.20;;;;;;;1.65;84.72;97752.95;102404;1259;1002870;-85
2023/11/25 04:17:38;;;;;;;4.10;3.30;;;;;;;1.65;84.81;97751.55;102653;1254;1003243;-87
2023/11/25 04:20:12;;;;;;;4.40;2.90;;;;;;;1.61;84.82;97751.19;103207;1259;137901;-86
2023/11/25 04:22:40;;;;;;;4.70;3.10;;;;;;;1.57;84.67;97751.69;103392;1254;97784;-86
2023/11/25 04:25:09;;;;;;;3.20;2.70;;;;;;;1.53;84.66;97754.90;103312;1254;111867;-87
2023/11/25 04:27:36;;;;;;;4.80;3.10;;;;;;;1.50;84.92;97759.31;104317;1255;139108;-85
2023/11/25 04:30:05;;;;;;;3.70;2.60;;;;;;;1.46;84.94;97758.90;103342;1254;98370;-85
2023/11/25 04:32:31;;;;;;;3.80;2.80;;;;;;;1.47;84.96;97761.65;103372;1254;137819;-87
2023/11/25 04:34:58;;;;;;;3.80;2.70;;;;;;;1.47;85.13;97765.41;103259;1258;97782;-85
2023/11/25 04:37:25;;;;;;;4.00;2.80;;;;;;;1.49;85.30;97770.46;102619;1254;1003758;-85
2023/11/25 04:39:52;;;;;;;6.10;3.00;;;;;;;1.50;85.26;97774.88;102409;1254;1003170;-85
2023/11/25 04:42:19;;;;;;;3.80;3.10;;;;;;;1.45;85.07;97773.18;103374;1254;98486;-85
2023/11/25 04:44:46;;;;;;;4.00;3.00;;;;;;;1.44;85.45;97777.66;103213;1254;138003;-86
2023/11/25 04:47:14;;;;;;;5.20;3.80;;;;;;;1.48;85.74;97779.90;103303;1258;97715;-85
2023/11/25 04:49:42;;;;;;;3.60;3.10;;;;;;;1.49;85.75;97784.67;103198;1254;136891;-81
2023/11/25 04:52:09;;;;;;;4.50;2.80;;;;;;;1.52;85.86;97790.38;103330;1254;106467;-86
2023/11/25 04:54:38;;;;;;;3.40;2.80;;;;;;;1.53;85.91;97794.98;103335;1255;99492;-85
2023/11/25 04:57:06;;;;;;;3.10;2.50;;;;;;;1.51;85.87;97790.40;103656;1254;137832;-87
2023/11/25 04:59:34;;;;;;;2.60;2.30;;;;;;;1.48;85.82;97794.30;103780;1254;96381;-86
2023/11/25 05:02:01;;;;;;;3.70;2.40;;;;;;;1.44;85.74;97795.64;103185;1253;136882;-84
2023/11/25 05:04:28;;;;;;;3.90;2.20;;;;;;;1.44;86.01;97796.65;103284;1257;107075;-84
2023/11/25 05:06:54;;;;;;;3.70;2.40;;;;;;;1.46;86.08;97799.70;102571;1254;1003026;-86
2023/11/25 05:09:25;;;;;;;2.70;2.30;;;;;;;1.45;86.16;97800.55;103178;1259;138183;-84
2023/11/25 05:11:52;;;;;;;2.60;2.40;;;;;;;1.43;86.17;97803.89;103291;1254;97823;-85
2023/11/25 05:14:19;;;;;;;3.00;2.30;;;;;;;1.43;86.18;97809.88;103218;1254;137868;-84
2023/11/25 05:16:47;;;;;;;3.20;2.40;;;;;;;1.39;86.26;97812.73;103286;1254;107980;-83
2023/11/25 05:19:14;;;;;;;2.50;2.10;;;;;;;1.39;86.49;97814.14;103313;1254;98431;-87
2023/11/25 05:21:41;;;;;;;3.50;2.60;;;;;;;1.41;86.77;97820.73;104305;1256;137912;-88
2023/11/25 05:24:09;;;;;;;3.30;2.40;;;;;;;1.49;86.81;97822.00;103322;1254;99016;-87
2023/11/25 05:26:36;;;;;;;2.60;2.40;;;;;;;1.52;86.66;97822.58;103747;1254;137344;-85
2023/11/25 05:29:05;;;;;;;3.00;2.70;;;;;;;1.54;86.71;97821.85;103278;1259;108223;-86
2023/11/25 05:31:33;;;;;;;3.50;3.10;;;;;;;1.52;86.54;97822.08;103118;1253;1002402;-88
2023/11/25 05:34:03;;;;;;;2.70;2.50;;;;;;;1.48;86.67;97828.55;103592;1257;106757;-86
2023/11/25 05:36:29;;;;;;;4.00;2.50;;;;;;;1.45;86.76;97832.77;103300;1254;97676;-86
2023/11/25 05:38:56;;;;;;;2.90;2.60;;;;;;;1.43;86.87;97837.80;103887;1256;136901;-87
2023/11/25 05:41:23;;;;;;;3.40;2.80;;;;;;;1.41;87.04;97841.60;103332;1253;107334;-86
2023/11/25 05:43:50;;;;;;;3.90;2.90;;;;;;;1.42;87.03;97840.91;103250;1254;139689;-85
2023/11/25 05:46:24;;;;;;;5.70;2.90;;;;;;;1.45;87.08;97848.19;103186;1258;1002508;-87
2023/11/25 05:48:53;;;;;;;3.30;2.90;;;;;;;1.48;87.32;97855.77;103255;1258;97797;-85
2023/11/25 05:51:20;;;;;;;3.10;2.90;;;;;;;1.50;87.29;97861.71;103224;1254;137287;-87
2023/11/25 05:53:46;;;;;;;3.90;3.30;;;;;;;1.50;87.22;97864.08;102585;1254;1002995;-87
2023/11/25 05:56:13;;;;;;;3.40;3.10;;;;;;;1.47;87.23;97871.38;102435;1253;1003422;-89
2023/11/25 05:58:40;;;;;;;3.50;3.20;;;;;;;1.46;87.22;97878.11;101764;1257;1015943;-85
2023/11/25 06:01:07;;;;;;;4.00;3.20;;;;;;;1.43;87.10;97880.77;103320;1258;97674;-86
2023/11/25 06:03:34;;;;;;;3.90;3.50;;;;;;;1.40;87.28;97882.75;102500;1254;1003688;-87
2023/11/25 06:06:06;;;;;;;5.20;4.00;;;;;;;1.36;87.29;97884.92;103268;1254;109117;-86
2023/11/25 06:08:33;;;;;;;4.20;3.80;;;;;;;1.33;87.44;97885.55;103229;1253;138558;-85
2023/11/25 06:10:59;;;;;;;6.50;4.20;;;;;;;1.30;87.40;97889.41;103257;1254;108221;-87
2023/11/25 06:13:26;;;;;;;4.40;3.70;;;;;;;1.28;87.45;97897.52;103333;1253;97910;-87
2023/11/25 06:15:53;;;;;;;4.10;3.70;;;;;;;1.27;87.30;97897.58;103220;1254;137663;-87
2023/11/25 06:18:20;;;;;;;4.10;3.70;;;;;;;1.27;87.21;97904.78;103251;1258;109237;-86
2023/11/25 06:20:48;;;;;;;4.50;4.10;;;;;;;1.29;87.31;97910.54;103257;1255;139029;-90
2023/11/25 06:23:15;;;;;;;5.00;4.40;;;;;;;1.30;87.38;97914.08;102548;1254;1003356;-88
2023/11/25 06:25:42;;;;;;;5.30;4.70;;;;;;;1.28;87.47;97919.44;103222;1254;138189;-88
2023/11/25 06:28:10;;;;;;;5.20;4.70;;;;;;;1.27;87.73;97921.20;103501;1253;110431;-88
2023/11/25 06:30:37;;;;;;;4.10;3.70;;;;;;;1.26;87.86;97918.65;103275;1253;107819;-88
2023/11/25 06:33:04;;;;;;;4.20;3.80;;;;;;;1.21;87.68;97924.46;103186;1254;138121;-86
2023/11/25 06:35:30;;;;;;;4.30;3.20;;;;;;;1.17;87.94;97933.45;102535;1254;1003699;-86
2023/11/25 06:37:58;;;;;;;4.30;3.30;;;;;;;1.19;88.11;97937.15;102593;1259;1003241;-86
2023/11/25 06:40:25;;;;;;;3.40;3.10;;;;;;;1.20;88.19;97941.58;104674;1256;110476;-86
2023/11/25 06:42:53;;;;;;;5.20;3.10;;;;;;;1.24;88.22;97944.88;104429;1254;108086;-86
2023/11/25 06:45:21;;;;;;;4.10;3.30;;;;;;;1.25;88.03;97943.33;103226;1258;136667;-86
2023/11/25 06:47:50;;;;;;;5.50;3.40;;;;;;;1.25;87.93;97952.40;104681;1254;108385;-86
2023/11/25 06:50:18;;;;;;;5.30;3.20;;;;;;;1.23;87.84;97954.16;103312;1253;138144;-88
2023/11/25 06:52:45;;;;;;;6.60;3.80;;;;;;;1.19;87.76;97955.13;103526;1253;1003025;-85
2023/11/25 06:55:12;;;;;;;6.20;3.00;;;;;;;1.13;87.73;97954.64;103301;1255;107516;-86
2023/11/25 06:57:40;;;;;;;4.80;3.10;;;;;;;1.10;87.89;97964.17;102459;1253;1003077;-84
2023/11/25 07:00:11;;;;;;;3.70;2.70;;;;;;;1.06;87.81;97970.25;103302;1258;108656;-87
2023/11/25 07:02:39;;;;;;;3.90;2.80;;;;;;;1.06;87.93;97972.66;103013;1254;1002657;-86
2023/11/25 07:05:07;;;;;;;3.00;2.40;;;;;;;1.08;87.95;97976.73;103470;1255;109720;-86
2023/11/25 07:07:35;;;;;;;4.20;2.50;;;;;;;1.09;87.79;97978.58;103704;1254;106638;-86
2023/11/25 07:10:01;;;;;;;3.40;2.50;;;;;;;1.08;87.54;97978.09;103328;1254;98325;-87
2023/11/25 07:12:30;;;;;;;4.90;2.80;;;;;;;1.08;87.66;97982.86;102612;1257;1003245;-85
2023/11/25 07:14:58;;;;;;;4.30;3.00;;;;;;;1.07;87.47;97979.83;103218;1254;138057;-85
2023/11/25 07:17:25;;;;;;;3.30;3.00;;;;;;;1.08;87.55;97984.09;103189;1258;110756;-87
2023/11/25 07:19:52;;;;;;;4.40;3.20;;;;;;;1.05;87.49;97984.65;103169;1254;137655;-84
2023/11/25 07:22:19;;;;;;;3.50;2.70;;;;;;;1.01;87.46;97989.06;102587;1255;1003183;-86
2023/11/25 07:24:46;;;;;;;3.50;2.50;;;;;;;1.01;87.41;97990.80;103305;1254;108278;-87
2023/11/25 07:27:18;;;;;;;3.90;2.50;;;;;;;1.02;87.56;97994.85;103281;1254;137944;-87
2023/11/25 07:29:45;;;;;;;2.80;2.30;;;;;;;1.07;87.80;97997.44;103323;1259;111410;-88
2023/11/25 07:32:13;;;;;;;4.20;2.90;;;;;;;1.12;87.63;97996.79;103260;1254;139806;-88
2023/11/25 07:34:40;;;;;;;3.00;2.70;;;;;;;1.16;87.55;97999.75;103453;1254;98316;-81
2023/11/25 07:37:08;;;;;;;4.10;2.90;;;;;;;1.18;87.47;98002.60;103259;1258;107329;-88
2023/11/25 07:39:35;;;;;;;4.60;2.80;;;;;;;1.18;87.45;98003.09;102419;1254;1002919;-87
2023/11/25 07:42:04;;;;;;;2.70;2.10;;;;;;;1.14;87.09;98006.47;103342;1254;110924;-87
2023/11/25 07:44:31;;;;;;;2.90;2.00;;;;;;;1.11;86.95;98012.39;103205;1259;137768;-86
2023/11/25 07:46:58;;;;;;;3.10;2.30;;;;;;;1.11;87.03;98017.04;103255;1259;98335;-84
2023/11/25 07:49:25;;;;;;;6.00;2.50;;;;;;;1.12;87.09;98024.18;103240;1254;109075;-85
2023/11/25 07:51:53;;;;;;;4.50;2.90;;;;;;;1.14;87.29;98024.98;103136;1253;137833;-81
2023/11/25 07:54:20;;;;;;;5.30;2.70;;;;;;;1.17;87.31;98028.13;102541;1257;1003592;-81
2023/11/25 07:56:48;;;;;;;5.70;2.80;;;;;;;1.23;87.16;98028.98;103188;1254;138155;-72
2023/11/25 07:59:15;;;;;;;3.40;2.30;;;;;;;1.25;86.74;98024.63;103282;1254;97787;-82
2023/11/25 08:01:42;;;;;;;4.30;2.30;;;;;;;1.23;86.21;98029.49;103372;1254;138315;-84
2023/11/25 08:04:09;;;;;;;3.10;2.20;;;;;;;1.27;86.26;98036.06;103401;1253;97709;-83
2023/11/25 08:06:36;;;;;;;3.20;2.20;;;;;;;1.28;86.17;98040.14;103298;1254;114033;-86
2023/11/25 08:09:03;;;;;;;2.80;2.20;;;;;;;1.28;86.20;98046.64;103117;1259;137630;-83
2023/11/25 08:11:32;;;;;;;3.20;2.50;;;;;;;1.28;86.34;98047.48;103351;1254;97829;-80
2023/11/25 08:13:59;;;;;;;4.60;3.10;;;;;;;1.32;86.46;98056.29;102429;1254;1003243;-85
2023/11/25 08:16:26;;;;;;;3.00;2.40;;;;;;;1.34;86.27;98055.54;103237;1254;97811;-71
2023/11/25 08:18:53;;;;;;;2.80;2.10;;;;;;;1.36;86.21;98051.01;103309;1253;112849;-79
2023/11/25 08:21:20;;;;;;;5.50;2.70;;;;;;;1.37;86.14;98053.19;103090;1255;138010;-75
2023/11/25 08:23:47;;;;;;;3.70;2.40;;;;;;;1.41;86.21;98050.50;103225;1257;97866;-73
2023/11/25 08:26:21;;;;;;;3.00;2.10;;;;;;;1.49;86.07;98050.95;103129;1254;137850;-73
2023/11/25 08:28:48;;;;;;;3.40;2.40;;;;;;;1.53;85.64;98050.00;104675;1254;96834;-74
2023/11/25 08:31:15;;;;;;;3.40;2.30;;;;;;;1.50;85.29;98050.23;104017;1254;111505;-72
2023/11/25 08:33:43;;;;;;;6.00;3.60;;;;;;;1.49;85.17;98056.61;103120;1253;137281;-73
2023/11/25 08:36:13;;;;;;;4.20;2.30;;;;;;;1.50;85.28;98055.20;101739;1254;1002949;-73
2023/11/25 08:38:40;;;;;;;3.80;2.40;;;;;;;1.51;85.26;98058.59;103125;1256;137574;-69
2023/11/25 08:41:08;;;;;;;4.90;2.80;;;;;;;1.49;85.20;98059.35;103246;1254;98207;-71
2023/11/25 08:43:38;;;;;;;3.80;2.60;;;;;;;1.49;85.43;98061.59;103257;1254;112199;-70
2023/11/25 08:46:05;;;;;;;3.90;2.30;;;;;;;1.49;85.03;98062.09;103217;1254;108014;-72
2023/11/25 08:48:32;;;;;;;3.60;1.90;;;;;;;1.49;84.89;98062.59;103245;1259;98339;-73
2023/11/25 08:50:58;;;;;;;4.70;2.50;;;;;;;1.58;84.78;98069.35;103096;1255;137633;-73
2023/11/25 08:53:29;;;;;;;3.70;2.50;;;;;;;1.64;84.71;98067.30;103205;1256;97790;-71
2023/11/25 08:55:59;;;;;;;3.40;2.30;;;;;;;1.71;84.69;98070.14;104118;1254;138204;-70
2023/11/25 08:58:26;;;;;;;5.40;3.00;;;;;;;1.79;84.54;98065.09;103173;1257;107221;-67
2023/11/25 09:00:53;;;;;;;9.30;3.30;;;;;;;1.85;84.15;98064.73;103271;1257;97804;-70
2023/11/25 09:03:20;;;;;;;6.90;3.80;;;;;;;1.91;83.46;98066.78;103095;1257;137070;-71
2023/11/25 09:05:49;;;;;;;4.80;3.10;;;;;;;1.90;83.39;98066.64;103184;1257;97676;-71
2023/11/25 09:08:17;;;;;;;4.30;2.60;;;;;;;1.88;83.31;98074.93;102391;1255;1003281;-70
2023/11/25 09:10:44;;;;;;;4.60;2.70;;;;;;;1.85;83.46;98077.09;103070;1254;107173;-71
2023/11/25 09:13:11;;;;;;;5.70;2.50;;;;;;;1.87;83.64;98083.19;103216;1259;97794;-74
2023/11/25 09:15:50;;;;;;;5.70;2.90;;;;;;;1.91;83.83;98086.83;103091;1258;137854;-72
2023/11/25 09:18:42;;;;;;;4.60;2.30;;;;;;;1.96;83.66;98088.52;103191;1257;99051;-72
2023/11/25 09:21:14;;;;;;;3.60;2.60;;;;;;;1.94;83.28;98091.86;104479;1253;137096;-75
2023/11/25 09:23:43;;;;;;;4.20;2.70;;;;;;;1.86;83.23;98093.83;103818;1254;1002971;-77
2023/11/25 09:26:09;;;;;;;4.10;2.80;;;;;;;1.82;83.55;98098.77;103686;1254;1002966;-73
2023/11/25 09:28:37;;;;;;;3.90;2.70;;;;;;;1.74;83.58;98102.41;103646;1256;106681;-76
2023/11/25 09:31:05;;;;;;;5.70;2.70;;;;;;;1.67;84.07;98109.84;103259;1254;97861;-75
2023/11/25 09:33:31;;;;;;;3.10;2.50;;;;;;;1.57;84.09;98109.10;103188;1254;138229;-76
2023/11/25 09:35:59;;;;;;;4.60;2.70;;;;;;;1.48;84.49;98111.95;103232;1256;107347;-77
2023/11/25 09:38:26;;;;;;;4.80;2.30;;;;;;;1.45;84.83;98110.18;103145;1256;138962;-76
2023/11/25 09:40:53;;;;;;;8.70;4.50;;;;;;;1.41;84.74;98115.23;102529;1259;1002991;-78
2023/11/25 09:43:21;;;;;;;6.70;3.30;;;;;;;1.38;85.20;98113.61;103263;1256;97843;-75
2023/11/25 09:45:49;;;;;;;5.90;3.00;;;;;;;1.35;85.26;98117.99;103180;1254;137115;-77
2023/11/25 09:48:17;;;;;;;5.70;3.70;;;;;;;1.31;85.52;98123.06;102475;1255;1002956;-75
2023/11/25 09:50:44;;;;;;;6.30;3.50;;;;;;;1.26;85.57;98120.31;102986;1253;1002369;-76
2023/11/25 09:53:20;;;;;;;5.80;3.00;;;;;;;1.21;85.95;98124.88;104635;1253;107029;-76
2023/11/25 09:55:58;;;;;;;4.00;2.50;;;;;;;1.19;86.21;98128.36;103769;1253;1002855;-75
2023/11/25 09:58:24;;;;;;;6.30;3.00;;;;;;;1.20;86.29;98126.29;104600;1256;111245;-76
2023/11/25 10:00:52;;;;;;;4.80;3.30;;;;;;;1.24;86.54;98130.27;103186;1256;109780;-77
2023/11/25 10:03:22;;;;;;;4.30;2.80;;;;;;;1.27;86.39;98124.74;103113;1259;138295;-76
2023/11/25 10:05:49;;;;;;;5.50;3.60;;;;;;;1.31;86.40;98127.35;103164;1256;107353;-77
2023/11/25 10:08:16;;;;;;;6.80;3.80;;;;;;;1.36;86.39;98123.62;103052;1253;137478;-76
2023/11/25 10:10:58;;;;;;;6.70;3.80;;;;;;;1.38;86.30;98130.06;103237;1254;110822;-77
2023/11/25 10:13:25;;;;;;;6.50;4.70;;;;;;;1.39;86.35;98129.67;103214;1258;108111;-74
2023/11/25 10:15:52;;;;;;;7.40;4.50;;;;;;;1.38;86.26;98129.20;103192;1255;137471;-74
2023/11/25 10:18:19;;;;;;;6.00;4.00;;;;;;;1.36;86.28;98127.20;103261;1257;108667;-81
2023/11/25 10:20:49;;;;;;;5.80;4.30;;;;;;;1.34;86.13;98127.45;103120;1256;137991;-78
2023/11/25 10:23:23;;;;;;;7.80;4.50;;;;;;;1.29;86.29;98139.58;103270;1257;111442;-77
2023/11/25 10:25:51;;;;;;;7.20;4.80;;;;;;;1.26;86.27;98137.95;103081;1256;138236;-80
2023/11/25 10:28:19;;;;;;;5.80;4.40;;;;;;;1.24;86.35;98142.80;102985;1256;1002936;-76
2023/11/25 10:30:55;;;;;;;6.60;4.30;;;;;;;1.20;86.53;98143.73;103241;1255;109498;-78
2023/11/25 10:33:24;;;;;;;7.60;4.90;;;;;;;1.21;86.63;98145.44;103779;1254;1002660;-76
2023/11/25 10:35:51;;;;;;;6.80;4.30;;;;;;;1.21;86.73;98147.48;103938;1256;111527;-78
2023/11/25 10:38:21;;;;;;;6.90;4.40;;;;;;;1.26;86.84;98151.81;103501;1256;139380;-78
2023/11/25 10:40:50;;;;;;;7.80;4.60;;;;;;;1.29;86.85;98153.27;103828;1256;97804;-79
2023/11/25 10:43:17;;;;;;;7.10;4.70;;;;;;;1.30;86.78;98157.89;103475;1255;107354;-78
2023/11/25 10:45:47;;;;;;;7.40;4.70;;;;;;;1.31;86.78;98159.04;103241;1255;137377;-77
2023/11/25 10:48:15;;;;;;;9.40;5.10;;;;;;;1.32;86.76;98163.30;102609;1254;1003469;-81
2023/11/25 10:50:43;;;;;;;8.90;4.90;;;;;;;1.27;86.63;98165.30;102446;1257;1002653;-75
2023/11/25 10:53:15;;;;;;;5.90;4.20;;;;;;;1.28;86.72;98168.39;103210;1256;97685;-75
2023/11/25 10:55:43;;;;;;;8.10;5.10;;;;;;;1.21;86.65;98173.84;103271;1255;138849;-78
2023/11/25 10:58:11;;;;;;;9.10;4.80;;;;;;;1.15;86.67;98171.96;103499;1258;97710;-77
2023/11/25 11:00:38;;;;;;;6.50;4.40;;;;;;;1.14;86.71;98175.94;103399;1256;110503;-74
2023/11/25 11:03:09;;;;;;;5.90;4.00;;;;;;;1.14;87.02;98172.50;103184;1256;138326;-75
2023/11/25 11:05:46;;;;;;;5.90;3.50;;;;;;;1.12;86.86;98173.08;103387;1256;98345;-72
2023/11/25 11:08:18;;;;;;;;;;;;;;;1.11;87.02;98181.66;102719;1256;1002088;-76
2023/11/25 11:10:51;;;;;;;5.60;3.80;;;;;;;1.06;87.08;98181.60;103304;1256;97669;-73
2023/11/25 11:13:24;;;;;;;5.70;3.70;;;;;;;1.03;87.06;98181.17;103456;1255;110514;-76
2023/11/25 11:15:55;;;;;;;4.90;3.60;;;;;;;1.02;87.24;98183.11;103189;1256;139010;-75
2023/11/25 11:18:30;;;;;;;5.00;3.60;;;;;;;0.99;87.18;98186.26;103226;1259;97858;-77
2023/11/25 11:20:59;;;;;;;5.00;3.90;;;;;;;0.92;87.06;98182.18;103720;1255;137274;-78
2023/11/25 11:23:27;;;;;;;6.80;4.50;;;;;;;0.89;87.03;98181.56;103380;1256;97787;-75
2023/11/25 11:26:07;;;;;;;8.50;4.20;;;;;;;0.84;87.20;98183.55;102469;1257;1003683;-73
2023/11/25 11:28:43;;;;;;;10.00;5.60;;;;;;;0.81;87.24;98189.81;103574;1257;107866;-74